<<    Februar 2011    >>
Datum    Temp.       Tempmin      Tempmax    Taup.       Taup.min      Taup.max    Feuchte    Feuchtemin    Feuchtemax    Druck    Druckmin    Druckmax    Regen    Wind    Benmax  
  01.02.2011  -2,5    -3,8    09:04    -1,4    23:59  -5,7    -6,7    09:05    -2,8    23:50  78,9    71    14:53    90    23:59  1028,2    1027    00:41    1030    08:41  0,0  1,6  10,4  
  02.02.2011  0,5    -1,4    00:00    2,8    14:58  -0,9    -2,8    00:00    1,1    12:36  90,8    79    15:49    96    05:55  1029,4    1027    19:41    1031    04:26  2,1  1,4  9,7  
  03.02.2011  3,1    0,2    00:00    6,4    12:21  1,9    -0,9    00:00    6,0    12:21  91,8    82    15:22    98    05:45  1026,2    1025    03:10    1028    00:11  4,8  1,8  14,0  
  04.02.2011  7,5    2,1    00:00    10,6    23:38  3,1    0,3    03:50    5,0    17:46  73,7    61    23:37    93    00:21  1022,1    1019    16:25    1026    00:00  0,0  5,0  24,8  
  05.02.2011  10,9    10,3    03:16    12,1    23:23  4,2    3,3    01:58    4,9    21:21  63,3    59    23:24    65    07:23  1022,6    1020    04:10    1025    21:10  0,0  6,1  24,8  
  06.02.2011  10,3    8,3    21:09    11,9    00:00  2,7    0,5    19:04    5,4    03:41  59,5    52    14:44    69    04:41  1025,0    1023    00:00    1027    19:55  0,0  5,3  24,8  
  07.02.2011  9,6    5,1    08:32    15,1    15:19  -0,2    -3,8    19:29    2,9    23:58  51,6    35    15:10    69    08:48  1020,1    1015    16:39    1026    00:00  0,0  3,3  19,8  
  08.02.2011  6,5    -0,5    23:54    10,9    00:00  0,1    -3,3    23:32    4,8    01:33  64,4    45    15:58    82    23:35  1023,7    1017    00:00    1027    12:39  0,0  2,1  15,5  
  09.02.2011  4,0    -1,9    06:43    10,4    15:14  -2,2    -4,8    18:04    1,2    11:46  67,4    37    16:05    91    09:31  1024,7    1022    23:59    1027    00:00  0,0  2,0  16,6  
  10.02.2011  7,1    4,3    08:41    10,3    15:11  2,7    -0,7    00:04    8,5    23:28  74,4    58    14:19    96    23:10  1018,4    1013    22:24    1022    00:00  3,7  2,7  14,0  
  11.02.2011  10,2    9,0    23:59    11,1    13:30  9,8    8,5    00:00    10,8    13:30  97,4    94    02:57    98    00:27  1013,1    1011    02:54    1015    16:54  30,4  2,2  16,6  
  12.02.2011  7,6    6,5    10:06    9,0    00:00  7,2    6,0    17:21    8,7    00:00  97,3    91    16:01    98    00:00  1014,2    1012    15:23    1016    02:38  7,5  2,5  16,9  
  13.02.2011  6,4    1,7    08:03    10,1    14:39  4,0    1,4    08:03    7,2    11:19  85,4    58    14:47    98    00:00  1011,9    1008    23:59    1015    02:38  1,0  1,7  16,2  
  14.02.2011  6,7    4,1    07:41    9,0    11:55  4,2    2,4    07:25    6,4    21:35  84,4    71    12:13    97    23:59  1007,0    1005    18:23    1008    00:00  3,9  2,7  19,4  
  15.02.2011  5,3    1,9    08:01    9,1    13:10  4,2    1,6    08:01    7,1    11:57  93,2    69    14:19    98    02:05  1001,0    997    17:07    1006    00:00  2,7  2,3  15,5  
  16.02.2011  6,4    2,6    07:17    10,4    14:49  3,9    1,2    21:59    7,2    11:06  85,1    65    15:08    98    00:45  1000,7    999    00:00    1003    10:52  0,0  1,6  14,0  
  17.02.2011  3,3    -1,0    06:56    10,7    15:38  0,2    -2,0    17:58    6,2    12:26  81,9    48    15:53    98    07:46  1005,4    1001    00:00    1012    22:37  0,0  1,1  13,0  
  18.02.2011  2,8    2,2    07:25    3,5    15:30  -1,7    -2,1    04:07    -1,2    19:57  71,7    68    14:57    75    00:04  1015,8    1011    00:00    1018    12:23  0,0  0,5  9,0  
  19.02.2011  4,3    2,8    23:33    6,7    14:47  -1,5    -2,8    15:29    -0,3    07:34  66,5    52    15:09    76    05:28  1017,4    1016    14:37    1019    00:22  0,0  2,0  15,8  
  20.02.2011  2,1    -0,1    23:59    4,6    13:27  -5,4    -8,8    23:51    -2,5    00:00  57,9    49    13:43    68    00:00  1018,3    1015    04:21    1021    19:21  0,0  3,0  13,7  
  21.02.2011  -0,4    -2,6    23:59    2,5    14:36  -9,6    -11,3    23:57    -8,1    12:29  50,1    44    13:36    53    00:06  1019,6    1017    16:36    1022    07:21  0,0  2,9  14,8  
  22.02.2011  -1,6    -5,1    06:36    3,7    16:03  -11,3    -13,1    19:08    -8,7    15:39  48,2    39    15:26    57    06:53  1020,9    1018    00:00    1026    22:36  0,0  1,6  11,5  
  23.02.2011  0,3    -4,1    06:29    4,3    15:50  -10,7    -13,0    03:02    -8,7    13:01  43,9    36    18:37    54    06:51  1026,1    1024    17:36    1029    10:37  0,0  4,8  19,1  
  24.02.2011  2,1    0,4    04:46    3,3    17:13  -0,3    -9,8    00:00    3,0    17:13  86,7    41    00:00    98    14:33  1025,0    1022    05:21    1028    23:59  3,9  3,0  15,8  
  25.02.2011  5,0    2,9    00:55    8,7    14:37  3,9    2,6    00:55    6,3    13:16  92,9    79    15:06    98    00:00  1028,0    1025    22:20    1030    08:20  0,0  1,4  10,4  
  26.02.2011  6,7    5,3    00:00    9,1    14:18  4,0    1,7    13:43    6,5    21:18  83,7    62    13:38    97    19:43  1016,7    1011    15:50    1026    00:00  4,6  4,4  21,2  
  27.02.2011  5,6    3,9    23:34    7,1    14:41  4,3    2,1    17:12    5,8    01:07  91,5    79    14:08    98    06:57  1014,5    1011    01:50    1019    21:35  5,9  6,1  27,0  
  28.02.2011  4,4    1,1    23:59    7,3    15:22  1,5    -0,7    23:59    3,1    00:46  81,8    63    16:02    95    03:24  1025,4    1019    00:00    1031    23:59  0,0  1,3  11,5  
 
  Gesamt  4,8  -5,1            15,1            0,4  -13,1            10,8            75,6  35            98            1018,6  997            1031            70,4  2,7  27,0  
 
  Mittelwert  4,8  1,9            7,8            0,4  -2,0            3,1            75,6  60,2            85,8            1018,6  1015,4            1021,9            2,5  2,7  16,3  
  Minimum  -2,5  -5,1            -1,4            -11,3  -13,1            -8,7            43,9  35,0            53,0            1000,7  997,0            1003,0            0,0  0,5  9,0  
  Maximum  10,9  10,3            15,1            9,8  8,5            10,8            97,4  94,0            98,0            1029,4  1027,0            1031,0            30,4  6,1  27,0  

  Heie Tage    Tmax >=30C     0  
  Sommertage    Tmax >=25C     0  
  Warme Tage    Tmax >=20C     0  
  Kalte Tage    Tmax  <10C     17  
  Frosttage    Tmin  <0C     9  
  Eistage    Tmax  <0C     1  
  Regentage > 0 mm    11  
  Regentage > 2 mm    10  
  Regentage > 10 mm    1  
  Regentage > 20 mm    1